createdAt,value
2023-01-25T00:01:05.269Z,1.28
2023-01-25T00:03:33.661Z,1.19
2023-01-25T00:06:01.989Z,1.36
2023-01-25T00:08:30.343Z,1.74
2023-01-25T00:10:58.777Z,1.39
2023-01-25T00:13:27.220Z,0.37
2023-01-25T00:16:01.926Z,0.01
2023-01-25T00:18:30.681Z,0.46
2023-01-25T00:20:58.628Z,0.91
2023-01-25T00:23:26.662Z,1.08
2023-01-25T00:25:58.850Z,1.28
2023-01-25T00:28:27.081Z,0.73
2023-01-25T07:20:12.008Z,3.57
2023-01-25T07:22:40.598Z,3.57
2023-01-25T07:25:09.245Z,3.40
2023-01-25T07:27:37.489Z,3.27
2023-01-25T07:30:06.757Z,3.20
2023-01-25T07:32:34.686Z,2.90
2023-01-25T07:35:02.609Z,3.24
2023-01-25T07:37:30.876Z,3.31
2023-01-25T07:39:58.904Z,3.36
2023-01-25T07:42:26.774Z,3.31
2023-01-25T07:45:11.386Z,3.65
2023-01-25T07:47:39.696Z,3.97
2023-01-25T07:50:08.708Z,3.38
2023-01-25T07:52:38.054Z,2.42
2023-01-25T07:55:06.344Z,2.21
2023-01-25T07:57:34.603Z,2.30
2023-01-25T08:00:02.864Z,2.68
2023-01-25T08:02:40.477Z,2.61
2023-01-25T08:05:09.479Z,2.62
2023-01-25T08:07:37.627Z,3.13
2023-01-25T08:10:07.273Z,3.37
2023-01-25T08:12:35.560Z,2.95
2023-01-25T08:15:03.696Z,3.03
2023-01-25T08:17:31.867Z,2.69
2023-01-25T08:20:01.771Z,3.50
2023-01-25T08:22:29.697Z,3.19
2023-01-25T08:24:57.743Z,3.14
2023-01-25T08:27:26.026Z,3.32
2023-01-25T08:29:55.170Z,3.50
2023-01-25T08:32:23.178Z,3.39
2023-01-25T08:34:52.800Z,3.08
2023-01-25T08:37:20.745Z,2.95
2023-01-25T08:39:48.633Z,2.60
2023-01-25T08:42:16.875Z,3.16
2023-01-25T08:44:44.741Z,3.22
2023-01-25T08:47:13.026Z,3.55
2023-01-25T08:49:41.487Z,3.68
2023-01-25T08:52:09.401Z,3.23
2023-01-25T08:54:37.358Z,3.65
2023-01-25T08:57:06.612Z,3.84
2023-01-25T08:59:34.839Z,3.91
2023-01-25T09:02:02.752Z,3.95
2023-01-25T09:04:31.901Z,3.90
2023-01-25T09:07:01.145Z,3.45
2023-01-25T09:09:30.251Z,3.94
2023-01-25T09:12:00.410Z,4.13
2023-01-25T09:14:28.496Z,4.41
2023-01-25T09:16:58.169Z,4.32
2023-01-25T09:19:26.513Z,4.15
2023-01-25T09:21:54.396Z,4.30
2023-01-25T09:24:22.509Z,4.36
2023-01-25T09:26:59.380Z,4.50
2023-01-25T09:29:28.177Z,4.69
2023-01-25T09:31:56.661Z,4.65
2023-01-25T09:34:25.551Z,4.66
2023-01-25T09:36:55.175Z,4.21
2023-01-25T09:39:23.513Z,4.57
2023-01-25T09:42:22.726Z,4.39
2023-01-25T09:45:09.260Z,4.27
2023-01-25T09:47:37.193Z,4.45
2023-01-25T09:50:09.298Z,4.52
2023-01-25T09:53:19.010Z,4.68
2023-01-25T09:55:54.319Z,4.25
2023-01-25T09:58:26.703Z,4.05
2023-01-25T10:01:36.754Z,4.50
2023-01-25T10:04:19.594Z,4.66
2023-01-25T10:07:00.049Z,4.78
2023-01-25T10:09:44.298Z,4.78
2023-01-25T10:12:16.022Z,4.79
2023-01-25T10:14:46.406Z,4.98
2023-01-25T10:17:35.953Z,4.53
2023-01-25T10:20:41.055Z,4.51
2023-01-25T10:23:08.955Z,4.84
2023-01-25T10:25:44.427Z,4.88
2023-01-25T10:28:25.067Z,5.22
2023-01-25T10:30:55.257Z,5.12
2023-01-25T10:33:23.252Z,5.18
2023-01-25T10:35:51.637Z,4.79
2023-01-25T10:38:35.175Z,5.07
2023-01-25T10:41:08.144Z,5.02
2023-01-25T10:43:36.263Z,5.17
2023-01-25T10:46:09.104Z,5.17
2023-01-25T10:48:40.195Z,4.74
2023-01-25T10:51:08.560Z,5.08
2023-01-25T10:53:44.444Z,4.83
2023-01-25T10:56:24.113Z,5.00
2023-01-25T10:58:54.725Z,4.93
2023-01-25T11:01:31.841Z,5.11
2023-01-25T11:04:02.694Z,5.24
2023-01-25T11:06:36.681Z,5.09
2023-01-25T11:09:23.260Z,5.17
2023-01-25T11:11:56.802Z,4.90
2023-01-25T11:14:27.615Z,4.98
2023-01-25T11:16:57.176Z,5.04
2023-01-25T11:19:42.299Z,5.29
2023-01-25T11:22:24.696Z,4.85
2023-01-25T11:24:53.345Z,5.26
2023-01-25T11:27:26.768Z,5.02
2023-01-25T11:30:12.760Z,5.35
2023-01-25T11:32:41.919Z,4.95
2023-01-25T11:35:16.284Z,5.24
2023-01-25T11:38:02.394Z,5.27
2023-01-25T11:40:42.455Z,5.25
2023-01-25T11:43:29.624Z,4.83
2023-01-25T11:46:10.406Z,5.17
2023-01-25T11:48:52.126Z,4.42
2023-01-25T11:52:00.306Z,5.25
2023-01-25T11:54:43.458Z,5.16
2023-01-25T11:57:52.336Z,5.23
2023-01-25T12:00:51.908Z,5.19
2023-01-25T12:03:34.679Z,5.13
2023-01-25T12:06:30.096Z,5.77
2023-01-25T12:09:22.583Z,5.04
2023-01-25T12:12:27.616Z,4.88
2023-01-25T12:15:17.500Z,5.44
2023-01-25T12:18:13.435Z,5.12
2023-01-25T12:20:57.209Z,5.28
2023-01-25T12:23:54.384Z,4.94
2023-01-25T12:26:28.051Z,5.43
2023-01-25T12:29:11.489Z,4.96
2023-01-25T12:31:50.475Z,5.19
2023-01-25T12:34:39.012Z,5.62
2023-01-25T12:37:15.832Z,5.48
2023-01-25T12:39:57.744Z,5.84
2023-01-25T12:42:48.220Z,5.64
2023-01-25T12:45:25.829Z,5.22
2023-01-25T12:48:01.087Z,5.17
2023-01-25T12:50:34.775Z,5.62
2023-01-25T12:53:05.578Z,5.51
2023-01-25T12:55:33.951Z,5.52
2023-01-25T12:58:32.759Z,5.53
2023-01-25T13:01:32.183Z,5.58
2023-01-25T13:04:11.394Z,5.55
2023-01-25T14:07:38.102Z,6.19
2023-01-25T14:10:12.219Z,5.83
2023-01-25T14:12:42.455Z,5.23
2023-01-25T14:15:26.740Z,5.59
2023-01-25T14:18:19.279Z,5.82
2023-01-25T14:20:51.846Z,5.48
2023-01-25T14:23:24.337Z,5.74
2023-01-25T14:25:54.285Z,5.89
2023-01-25T14:28:22.913Z,5.87
2023-01-25T14:30:56.397Z,5.11
2023-01-25T14:33:32.567Z,5.13
2023-01-25T14:36:24.599Z,5.56
2023-01-25T14:38:54.660Z,5.59
2023-01-25T14:41:40.121Z,5.79
2023-01-25T14:44:14.918Z,5.44
2023-01-25T14:46:43.046Z,5.21
2023-01-25T14:49:26.725Z,4.90
2023-01-25T14:52:14.741Z,5.32
2023-01-25T14:54:59.763Z,5.15
2023-01-25T14:57:35.354Z,4.99
2023-01-25T15:00:09.753Z,4.83
2023-01-25T15:02:56.693Z,4.94
2023-01-25T15:05:30.346Z,5.50
2023-01-25T15:08:09.975Z,5.32
2023-01-25T15:11:19.552Z,5.43
2023-01-25T15:13:49.944Z,5.01
2023-01-25T15:16:18.455Z,5.39
2023-01-25T15:18:54.310Z,5.60
2023-01-25T15:21:33.093Z,5.11
2023-01-25T15:24:07.942Z,5.11
2023-01-25T15:26:36.704Z,5.19
2023-01-25T15:29:16.142Z,5.24
2023-01-25T15:31:44.558Z,5.25
2023-01-25T15:34:18.412Z,5.46
2023-01-25T15:36:47.455Z,5.69
2023-01-25T15:39:17.956Z,5.37
2023-01-25T15:41:48.917Z,5.59
2023-01-25T15:44:17.839Z,5.01
2023-01-25T15:46:49.479Z,4.74
2023-01-25T15:49:21.695Z,4.98
2023-01-25T15:51:50.125Z,5.13
2023-01-25T15:54:18.045Z,5.02
2023-01-25T15:56:47.696Z,4.99
2023-01-25T15:59:17.872Z,4.54
2023-01-25T16:01:45.965Z,4.72
2023-01-25T16:04:14.434Z,4.77
2023-01-25T16:06:51.968Z,5.08
2023-01-25T16:09:21.969Z,5.29
2023-01-25T16:11:55.954Z,5.07
2023-01-25T16:14:30.184Z,5.12
2023-01-25T16:17:01.759Z,4.96
2023-01-25T16:19:30.775Z,4.86
2023-01-25T16:21:58.662Z,4.80
2023-01-25T16:24:28.029Z,4.73
2023-01-25T16:26:58.471Z,5.39
2023-01-25T16:29:28.965Z,5.02
2023-01-25T16:31:57.372Z,5.32
2023-01-25T16:34:25.446Z,5.21
2023-01-25T16:36:55.241Z,5.09
2023-01-25T16:39:26.671Z,5.02
2023-01-25T16:41:55.306Z,4.72
2023-01-25T16:44:23.982Z,4.25
2023-01-25T16:46:51.942Z,4.19
2023-01-25T16:49:22.743Z,4.63
2023-01-25T16:51:51.917Z,4.64
2023-01-25T16:54:20.890Z,4.69
2023-01-25T16:56:49.712Z,4.55
2023-01-25T16:59:18.982Z,4.53
2023-01-25T17:01:49.010Z,4.87
2023-01-25T17:04:17.572Z,5.04
2023-01-25T17:06:47.953Z,4.89
2023-01-25T17:09:23.435Z,4.32
2023-01-25T17:11:53.965Z,4.60
2023-01-25T17:14:22.810Z,4.93
2023-01-25T17:16:52.180Z,5.02
2023-01-25T17:19:20.971Z,4.67
2023-01-25T17:21:48.989Z,5.15
2023-01-25T17:24:19.458Z,4.37
2023-01-25T17:26:48.019Z,4.23
2023-01-25T17:29:16.633Z,3.43
2023-01-25T17:31:44.748Z,4.05
2023-01-25T17:34:16.318Z,3.43
2023-01-25T17:36:45.449Z,3.20
2023-01-25T17:39:16.010Z,3.17
2023-01-25T17:41:44.962Z,3.60
2023-01-25T17:44:14.384Z,4.10
2023-01-25T17:46:42.457Z,4.29
2023-01-25T17:49:13.185Z,4.93
2023-01-25T17:51:41.636Z,5.43
2023-01-25T17:54:10.624Z,5.64
2023-01-25T17:56:39.777Z,5.82
2023-01-25T17:59:11.933Z,5.77
2023-01-25T18:01:42.754Z,5.67
2023-01-25T18:04:13.499Z,5.60
2023-01-25T18:06:41.594Z,5.69
2023-01-25T18:09:09.837Z,4.82
2023-01-25T18:11:40.163Z,4.88
2023-01-25T18:14:12.897Z,4.91
2023-01-25T18:16:41.831Z,4.56
2023-01-25T18:19:10.614Z,4.40
2023-01-25T18:21:39.204Z,4.83
2023-01-25T18:24:25.161Z,5.10
2023-01-25T18:27:04.131Z,5.14
2023-01-25T18:29:49.069Z,4.72
2023-01-25T18:32:17.106Z,4.20
2023-01-25T18:34:47.027Z,3.87
2023-01-25T18:37:20.961Z,4.61
2023-01-25T18:39:54.238Z,5.29
2023-01-25T18:42:24.335Z,5.48
2023-01-25T18:44:52.779Z,5.63
2023-01-25T18:47:22.661Z,5.11
2023-01-25T18:49:52.387Z,4.53
2023-01-25T18:52:22.092Z,4.33
2023-01-25T18:54:50.175Z,4.11
2023-01-25T18:57:18.294Z,4.12
2023-01-25T18:59:46.795Z,4.25
2023-01-25T19:02:16.351Z,4.17
2023-01-25T19:04:45.740Z,3.96
2023-01-25T19:07:14.178Z,4.75
2023-01-25T19:09:45.310Z,4.69
2023-01-25T19:12:13.764Z,3.90
2023-01-25T19:14:41.756Z,4.05
2023-01-25T19:17:10.274Z,3.68
2023-01-25T19:19:38.896Z,3.62
2023-01-25T19:22:06.926Z,4.37
2023-01-25T19:24:35.184Z,4.34
2023-01-25T19:27:03.738Z,4.50
2023-01-25T19:29:31.903Z,4.52
2023-01-25T19:31:59.882Z,4.47
2023-01-25T19:34:28.226Z,4.11
2023-01-25T19:36:57.571Z,4.26
2023-01-25T19:39:25.616Z,4.73
2023-01-25T19:41:54.613Z,4.78
2023-01-25T19:44:22.754Z,4.65
2023-01-25T19:46:50.974Z,4.70
2023-01-25T19:49:19.284Z,4.81
2023-01-25T19:51:53.252Z,4.89
2023-01-25T19:54:23.220Z,4.80
2023-01-25T19:56:51.405Z,5.01
2023-01-25T19:59:25.618Z,5.12
2023-01-25T20:01:54.499Z,4.56
2023-01-25T20:04:24.787Z,4.79
2023-01-25T20:06:53.269Z,4.55
2023-01-25T20:09:25.182Z,4.85
2023-01-25T20:11:56.313Z,4.59
2023-01-25T20:14:24.429Z,4.43
2023-01-25T20:16:52.993Z,4.69
2023-01-25T20:19:21.504Z,5.11
2023-01-25T20:21:49.636Z,4.63
2023-01-25T20:24:18.013Z,4.53
2023-01-25T20:26:46.466Z,4.91
2023-01-25T20:29:14.662Z,4.53
2023-01-25T20:31:44.578Z,4.27
2023-01-25T20:34:18.439Z,3.92
2023-01-25T20:36:47.072Z,4.37
2023-01-25T20:39:20.366Z,4.35
2023-01-25T20:41:48.796Z,3.98
2023-01-25T20:44:18.197Z,3.91
2023-01-25T20:46:46.470Z,4.30
2023-01-25T20:49:16.614Z,4.26
2023-01-25T20:51:46.036Z,3.61
2023-01-25T20:54:14.774Z,3.56
2023-01-25T20:56:43.331Z,3.46
2023-01-25T20:59:11.664Z,3.35
2023-01-25T21:01:39.780Z,3.59
2023-01-25T21:04:09.846Z,3.37
2023-01-25T21:06:38.916Z,3.46
2023-01-25T21:09:07.127Z,3.12
2023-01-25T21:11:35.234Z,3.22
2023-01-25T21:14:03.895Z,3.61
2023-01-25T21:16:32.046Z,4.45
2023-01-25T21:19:04.141Z,4.83
2023-01-25T21:21:35.024Z,4.17
2023-01-25T21:24:05.521Z,4.20
2023-01-25T21:26:35.419Z,4.41
2023-01-25T21:29:04.212Z,5.12
2023-01-25T21:31:34.832Z,5.30
2023-01-25T21:34:04.463Z,4.24
2023-01-25T21:36:32.611Z,3.85
2023-01-25T21:39:00.670Z,4.26
2023-01-25T21:41:31.154Z,3.98
2023-01-25T21:44:18.554Z,4.53
2023-01-25T21:47:12.484Z,4.38
2023-01-25T21:49:53.481Z,3.98
2023-01-25T21:52:21.877Z,3.91
2023-01-25T21:54:49.957Z,4.00
2023-01-25T21:57:18.048Z,3.36
2023-01-25T21:59:46.537Z,3.46
2023-01-25T22:02:15.397Z,3.29
2023-01-25T22:04:43.870Z,3.49
2023-01-25T22:07:12.167Z,3.29
2023-01-25T22:09:40.213Z,3.33
2023-01-25T22:12:08.567Z,3.53
2023-01-25T22:14:36.913Z,4.06
2023-01-25T22:17:05.322Z,3.68
2023-01-25T22:19:33.746Z,4.27
2023-01-25T22:22:01.773Z,4.06
2023-01-25T22:24:29.775Z,3.90
2023-01-25T22:26:59.722Z,4.02
2023-01-25T22:29:27.716Z,4.67
2023-01-25T22:31:56.434Z,4.84
2023-01-25T22:34:24.788Z,4.95
2023-01-25T22:36:52.825Z,4.85
2023-01-25T22:39:20.834Z,4.71
2023-01-25T22:41:49.123Z,3.90
2023-01-25T22:44:17.133Z,3.27
2023-01-25T22:46:45.163Z,3.78
2023-01-25T22:49:13.953Z,4.49
2023-01-25T22:51:41.925Z,4.25
2023-01-25T22:54:09.826Z,4.62
2023-01-25T22:56:39.225Z,4.93
2023-01-25T22:59:08.283Z,3.85
2023-01-25T23:01:36.429Z,4.65
2023-01-25T23:04:05.003Z,4.61
2023-01-25T23:06:34.465Z,4.65
2023-01-25T23:09:04.557Z,4.25
2023-01-25T23:11:38.581Z,4.09
2023-01-25T23:14:27.637Z,4.16
2023-01-25T23:17:14.222Z,4.75
2023-01-25T23:19:42.072Z,4.57
2023-01-25T23:22:10.307Z,4.22
2023-01-25T23:24:38.302Z,4.24
2023-01-25T23:27:06.182Z,2.92
2023-01-25T23:29:34.450Z,3.86
2023-01-25T23:32:02.490Z,4.22
2023-01-25T23:34:35.057Z,3.76
2023-01-25T23:37:04.074Z,3.64
2023-01-25T23:39:32.022Z,3.53
2023-01-25T23:41:59.853Z,3.03
2023-01-25T23:44:28.406Z,3.21
2023-01-25T23:46:56.387Z,4.25
2023-01-25T23:49:24.473Z,3.46
2023-01-25T23:51:52.735Z,2.81
2023-01-25T23:54:20.542Z,3.74
2023-01-25T23:56:48.414Z,3.20
2023-01-25T23:59:16.662Z,3.14
